Time;durP1;ratioP1;P1;durP2;ratioP2;P2;SDS_P1;SDS_P2;PMS_P1;PMS_P2;Temp;Humidity;BMP_temperature;BMP_pressure;BME280_temperature;BME280_humidity;BME280_pressure;Samples;Min_cycle;Max_cycle;Signal;HPM_P1;HPM_P2
2023/02/03 00:00:27;;;;;;;;;;;9.80;97.50;;;8.63;84.24;101398.63;5051335;28;19933;-79
2023/02/03 00:02:55;;;;;;;;;;;9.80;97.40;;;8.63;84.03;101386.16;5050850;28;19928;-79
2023/02/03 00:05:23;;;;;;;;;;;9.80;97.20;;;8.63;84.14;101375.50;5052612;28;19925;-79
2023/02/03 00:07:50;;;;;;;;;;;9.80;97.40;;;8.65;84.22;101376.19;5052012;28;19928;-79
2023/02/03 00:10:20;;;;;;;;;;;9.80;97.40;;;8.65;83.89;101375.34;5052925;28;19928;-79
2023/02/03 00:12:48;;;;;;;;;;;9.80;97.20;;;8.65;83.90;101375.34;5052486;28;20023;-79
2023/02/03 00:15:15;;;;;;;;;;;9.80;97.20;;;8.65;83.91;101373.53;5052449;28;19979;-79
2023/02/03 00:17:41;;;;;;;;;;;9.80;97.00;;;8.65;83.89;101378.84;5033340;28;19925;-79
2023/02/03 00:20:11;;;;;;;;;;;9.80;97.10;;;8.68;83.81;101377.66;5051675;28;19929;-79
2023/02/03 00:22:38;;;;;;;;;;;9.80;97.00;;;8.70;83.80;101368.50;5053029;28;19935;-79
2023/02/03 00:25:06;;;;;;;;;;;9.80;97.00;;;8.70;83.73;101373.81;5052060;28;19932;-79
2023/02/03 00:27:33;;;;;;;;;;;9.90;97.00;;;8.72;83.61;101371.81;5051589;28;19925;-79
2023/02/03 00:30:00;;;;;;;;;;;9.90;97.00;;;8.72;83.35;101363.81;5052360;28;19935;-79
2023/02/03 00:32:27;;;;;;;;;;;9.90;96.70;;;8.71;83.14;101354.19;5052652;28;19925;-79
2023/02/03 00:34:54;;;;;;;;;;;9.90;96.70;;;8.66;83.16;101367.19;5033505;28;19928;-79
2023/02/03 00:37:22;;;;;;;;;;;9.80;96.40;;;8.63;83.44;101362.22;5051765;28;19928;-79
2023/02/03 00:39:49;;;;;;;;;;;9.80;96.70;;;8.67;83.72;101360.03;5052434;28;19928;-79
2023/02/03 00:42:16;;;;;;;;;;;9.80;96.80;;;8.68;83.55;101365.19;5031901;28;19928;-79
2023/02/03 00:44:44;;;;;;;;;;;9.80;96.70;;;8.64;83.56;101363.91;5049351;28;19929;-79
2023/02/03 00:47:11;;;;;;;;;;;9.80;96.80;;;8.64;83.48;101363.91;5027640;28;20024;-79
2023/02/03 00:49:38;;;;;;;;;;;9.90;96.60;;;8.67;83.44;101374.16;5033886;28;19929;-79
2023/02/03 00:52:05;;;;;;;;;;;9.80;96.70;;;8.70;83.39;101370.34;5049972;28;19952;-79
2023/02/03 00:54:33;;;;;;;;;;;9.90;96.70;;;8.72;83.17;101360.34;5050542;28;19928;-79
2023/02/03 00:57:00;;;;;;;;;;;9.90;96.70;;;8.71;83.21;101358.69;5050604;28;20020;-79
2023/02/03 00:59:27;;;;;;;;;;;9.90;96.60;;;8.71;83.25;101364.84;5051531;28;20385;-79
2023/02/03 01:01:54;;;;;;;;;;;9.90;96.80;;;8.73;83.08;101377.94;5050788;28;19929;-79
2023/02/03 01:04:21;;;;;;;;;;;9.90;96.60;;;8.70;83.06;101405.72;5051820;28;20325;-79
2023/02/03 01:06:48;;;;;;;;;;;9.90;96.60;;;8.73;83.15;101410.69;5050895;28;19924;-79
2023/02/03 01:09:15;;;;;;;;;;;9.90;96.60;;;8.74;83.00;101408.88;5050494;28;19936;-79
2023/02/03 01:11:43;;;;;;;;;;;9.90;96.60;;;8.76;83.02;101410.34;5047010;28;20325;-79
2023/02/03 01:14:10;;;;;;;;;;;9.90;96.60;;;8.74;82.73;101403.56;5032645;28;19971;-79
2023/02/03 01:16:37;;;;;;;;;;;9.90;96.40;;;8.72;83.17;101409.03;5050469;28;19951;-79
2023/02/03 01:19:04;;;;;;;;;;;9.90;96.60;;;8.74;83.26;101428.31;5051660;28;20019;-79
2023/02/03 01:21:32;;;;;;;;;;;9.80;96.60;;;8.75;83.38;101432.63;5052003;28;19929;-79
2023/02/03 01:23:59;;;;;;;;;;;9.90;96.60;;;8.75;83.14;101424.66;5050698;28;19955;-79
2023/02/03 01:26:26;;;;;;;;;;;9.90;96.50;;;8.77;82.92;101432.44;5032811;28;19933;-79
2023/02/03 01:28:56;;;;;;;;;;;9.90;96.50;;;8.77;82.93;101427.94;5033404;28;19933;-79
2023/02/03 01:31:25;;;;;;;;;;;9.90;96.40;;;8.76;82.70;101415.66;5050866;28;19931;-79
2023/02/03 01:33:53;;;;;;;;;;;9.90;96.40;;;8.77;82.70;101406.66;5050714;28;19928;-79
2023/02/03 01:36:21;;;;;;;;;;;9.90;96.40;;;8.75;82.80;101408.69;5049926;28;20385;-79
2023/02/03 01:38:48;;;;;;;;;;;9.90;96.40;;;8.76;82.79;101420.97;5030661;28;20396;-79
2023/02/03 01:41:17;;;;;;;;;;;9.90;96.40;;;8.75;82.65;101419.34;5025969;28;19936;-79
2023/02/03 01:43:46;;;;;;;;;;;9.90;96.30;;;8.77;82.80;101419.97;5032586;28;19971;-79
2023/02/03 01:46:25;;;;;;;;;;;9.90;96.50;;;8.79;82.78;101421.66;5026504;28;20377;-79
2023/02/03 01:48:53;;;;;;;;;;;9.90;96.40;;;8.80;82.54;101412.66;5051117;28;19974;-79
2023/02/03 01:51:21;;;;;;;;;;;9.90;96.20;;;8.78;82.30;101412.81;5030119;28;20455;-79
2023/02/03 01:53:50;;;;;;;;;;;10.10;96.20;;;8.80;82.49;101405.50;5031588;28;20657;-79
2023/02/03 01:56:17;;;;;;;;;;;9.90;96.10;;;8.79;82.37;101406.53;5050046;28;19939;-79
2023/02/03 01:58:46;;;;;;;;;;;9.90;96.10;;;8.80;82.66;101412.66;5048889;28;20413;-79
2023/02/03 02:01:13;;;;;;;;;;;10.00;96.00;;;8.77;82.33;101413.81;5030315;28;19925;-79
2023/02/03 02:03:44;;;;;;;;;;;10.00;96.00;;;8.71;82.42;101412.69;5032201;28;19929;-79
2023/02/03 02:06:13;;;;;;;;;;;9.90;95.90;;;8.71;82.46;101418.03;5048740;28;19935;-79
2023/02/03 02:08:42;;;;;;;;;;;9.90;96.00;;;8.71;82.39;101412.69;5049135;28;19982;-79
2023/02/03 02:11:09;;;;;;;;;;;10.00;96.00;;;8.69;82.44;101400.59;5050916;28;20304;-79
2023/02/03 02:13:37;;;;;;;;;;;9.90;96.00;;;8.71;82.38;101395.91;5032423;28;20423;-79
2023/02/03 02:16:10;;;;;;;;;;;9.90;96.00;;;8.72;82.47;101394.91;5030123;28;19940;-79
2023/02/03 02:18:51;;;;;;;;;;;9.90;96.20;;;8.72;82.30;101390.41;5031889;28;19947;-79
2023/02/03 02:21:28;;;;;;;;;;;9.90;96.20;;;8.73;82.77;101377.94;5050314;28;19936;-79
2023/02/03 02:24:11;;;;;;;;;;;9.90;96.20;;;8.79;82.49;101385.25;5029250;28;19928;-79
2023/02/03 02:26:55;;;;;;;;;;;9.90;96.20;;;8.77;82.36;101366.78;5029832;28;19958;-79
2023/02/03 02:30:07;;;;;;;;;;;9.90;95.90;;;8.74;82.37;101355.69;5041749;28;19936;-79
2023/02/03 02:32:54;;;;;;;;;;;9.90;96.00;;;8.75;82.06;101360.81;5031986;28;19929;-79
2023/02/03 02:35:32;;;;;;;;;;;9.90;95.60;;;8.79;82.06;101360.47;5047949;28;20484;-79
2023/02/03 02:38:02;;;;;;;;;;;9.90;95.80;;;8.82;82.20;101370.75;5030283;28;19925;-79
2023/02/03 02:40:35;;;;;;;;;;;10.00;95.80;;;8.83;82.06;101364.41;5032511;28;19929;-79
2023/02/03 02:43:08;;;;;;;;;;;10.00;95.70;;;8.81;81.80;101348.63;5031153;28;19929;-79
2023/02/03 02:45:44;;;;;;;;;;;10.00;95.50;;;8.82;81.69;101352.13;5029358;28;20026;-79
2023/02/03 02:48:20;;;;;;;;;;;10.00;95.40;;;8.80;81.37;101357.63;5048102;28;19929;-79
2023/02/03 02:50:49;;;;;;;;;;;10.00;95.20;;;8.80;81.60;101362.13;5029474;28;19940;-79
2023/02/03 02:53:18;;;;;;;;;;;10.00;95.50;;;8.77;81.67;101350.00;5050180;28;19928;-79
2023/02/03 02:55:46;;;;;;;;;;;9.90;95.40;;;8.80;82.17;101338.19;5032069;28;20005;-79
2023/02/03 02:58:16;;;;;;;;;;;10.00;95.50;;;8.81;81.63;101331.84;5028646;28;20023;-79
2023/02/03 03:00:44;;;;;;;;;;;10.00;95.40;;;8.82;81.68;101318.38;5029561;28;20397;-79
2023/02/03 03:03:17;;;;;;;;;;;10.00;95.40;;;8.81;81.36;101321.22;5029671;28;20805;-79
2023/02/03 03:05:48;;;;;;;;;;;10.00;95.30;;;8.83;81.06;101343.13;5049889;28;19931;-79
2023/02/03 03:08:21;;;;;;;;;;;10.00;95.20;;;8.82;80.75;101338.81;5030511;28;19956;-79
2023/02/03 03:10:48;;;;;;;;;;;10.00;94.90;;;8.77;81.12;101356.13;5049432;28;19932;-79
2023/02/03 03:13:20;;;;;;;;;;;10.00;95.00;;;8.80;81.07;101378.09;5049690;28;20368;-78
2023/02/03 03:15:49;;;;;;;;;;;10.00;94.90;;;8.80;80.92;101378.09;5030142;28;19932;-79
2023/02/03 03:18:21;;;;;;;;;;;9.90;95.00;;;8.81;80.79;101371.75;5031060;28;19928;-79
2023/02/03 03:20:49;;;;;;;;;;;10.00;94.80;;;8.82;80.87;101370.75;5037434;28;20316;-79
2023/02/03 03:23:20;;;;;;;;;;;10.00;95.00;;;8.83;80.71;101362.56;5041588;28;20381;-79
2023/02/03 03:25:53;;;;;;;;;;;10.00;94.80;;;8.84;80.64;101355.44;5049316;28;19936;-79
2023/02/03 03:28:25;;;;;;;;;;;10.00;94.80;;;8.86;80.45;101361.41;5045436;28;19971;-79
2023/02/03 03:30:53;;;;;;;;;;;10.00;94.60;;;8.87;80.49;101363.88;5048374;28;19929;-79
2023/02/03 03:33:22;;;;;;;;;;;10.00;94.70;;;8.88;80.30;101365.56;5064641;22;19990;-77
2023/02/03 03:35:53;;;;;;;;;;;10.00;94.40;;;8.86;80.04;101367.56;5010761;28;19925;-77
2023/02/03 03:38:24;;;;;;;;;;;10.10;94.40;;;8.84;80.37;101352.78;5026855;28;19925;-77
2023/02/03 03:40:56;;;;;;;;;;;10.10;94.60;;;8.86;80.31;101356.91;5019279;28;19939;-77
2023/02/03 03:43:28;;;;;;;;;;;10.10;94.40;;;8.86;79.93;101361.41;5027130;28;19929;-77
2023/02/03 03:45:58;;;;;;;;;;;10.10;94.20;;;8.86;79.98;101364.06;4989526;28;19925;-77
2023/02/03 03:48:30;;;;;;;;;;;10.10;94.20;;;8.91;79.77;101361.69;4998155;28;20054;-77
2023/02/03 03:50:59;;;;;;;;;;;10.10;94.00;;;8.92;79.63;101361.50;4989974;28;20349;-77
2023/02/03 03:53:28;;;;;;;;;;;10.10;94.10;;;8.92;79.42;101361.50;5011830;28;19936;-77
2023/02/03 03:55:56;;;;;;;;;;;10.10;93.80;;;8.89;79.27;101361.06;4987135;28;19929;-77
2023/02/03 03:58:25;;;;;;;;;;;10.10;93.80;;;8.90;79.17;101360.88;5011896;28;19930;-77
2023/02/03 04:00:54;;;;;;;;;;;10.00;93.70;;;8.82;78.98;101349.47;5002228;28;19936;-78
2023/02/03 04:03:24;;;;;;;;;;;10.00;93.40;;;8.80;79.10;101351.50;5002910;28;19933;-77
2023/02/03 04:05:52;;;;;;;;;;;10.00;93.50;;;8.83;79.37;101354.59;4999694;28;20313;-77
2023/02/03 04:08:19;;;;;;;;;;;10.00;93.80;;;8.84;79.25;101366.91;5017970;28;19940;-77
2023/02/03 04:10:46;;;;;;;;;;;9.90;93.70;;;8.85;79.38;101357.09;5012912;28;20039;-77
2023/02/03 04:13:14;;;;;;;;;;;10.00;93.80;;;8.80;79.37;101362.94;5003239;28;19929;-77
2023/02/03 04:15:41;;;;;;;;;;;10.00;93.60;;;8.83;79.40;101351.13;4991123;28;19929;-77
2023/02/03 04:18:11;;;;;;;;;;;10.00;93.80;;;8.82;79.30;101360.94;5012262;28;19941;-77
2023/02/03 04:20:38;;;;;;;;;;;10.00;93.70;;;8.85;79.06;101351.78;4999174;28;20429;-77
2023/02/03 04:23:07;;;;;;;;;;;10.10;93.60;;;8.79;79.23;101342.69;5009091;28;19932;-77
2023/02/03 04:25:34;;;;;;;;;;;10.00;93.50;;;8.82;79.32;101341.47;5013381;28;20033;-77
2023/02/03 04:28:01;;;;;;;;;;;10.00;93.70;;;8.80;79.14;101338.19;5009950;28;19932;-78
2023/02/03 04:30:28;;;;;;;;;;;10.00;93.50;;;8.80;78.81;101348.81;5014688;28;20494;-77
2023/02/03 04:32:55;;;;;;;;;;;10.00;93.30;;;8.75;79.00;101360.81;5008042;28;19926;-77
2023/02/03 04:35:22;;;;;;;;;;;9.90;93.40;;;8.75;78.54;101350.19;4999407;28;20036;-77
2023/02/03 04:37:49;;;;;;;;;;;9.90;93.20;;;8.76;78.73;101346.50;4981594;28;19953;-77
2023/02/03 04:40:18;;;;;;;;;;;9.90;93.60;;;8.78;78.81;101348.97;5006883;28;19940;-77
2023/02/03 04:42:45;;;;;;;;;;;9.90;93.50;;;8.75;78.88;101354.69;5012187;28;19930;-77
2023/02/03 04:45:12;;;;;;;;;;;9.90;93.50;;;8.77;78.47;101340.19;4994223;28;19936;-77
2023/02/03 04:47:39;;;;;;;;;;;9.90;93.30;;;8.75;78.33;101339.53;5005017;28;19933;-77
2023/02/03 04:50:07;;;;;;;;;;;9.90;93.20;;;8.76;79.10;101343.03;5010015;28;19937;-77
2023/02/03 04:52:34;;;;;;;;;;;9.90;93.50;;;8.82;78.70;101334.34;5005484;28;19936;-77
2023/02/03 04:55:02;;;;;;;;;;;10.00;93.20;;;8.82;78.52;101328.19;4994155;28;19933;-77
2023/02/03 04:57:31;;;;;;;;;;;10.00;93.20;;;8.79;78.40;101317.91;5017438;28;19939;-77
2023/02/03 04:59:58;;;;;;;;;;;10.00;93.20;;;8.76;78.64;101335.06;5009767;28;19936;-76
2023/02/03 05:02:25;;;;;;;;;;;10.00;93.00;;;8.79;78.55;101305.44;4998163;28;19936;-76
2023/02/03 05:04:52;;;;;;;;;;;10.00;93.00;;;8.82;78.54;101312.22;5003664;28;19937;-77
2023/02/03 05:07:19;;;;;;;;;;;10.00;93.00;;;8.84;78.50;101304.91;5009620;28;19929;-77
2023/02/03 05:09:46;;;;;;;;;;;10.00;92.80;;;8.82;78.10;101301.59;5006677;28;19932;-77
2023/02/03 05:12:13;;;;;;;;;;;10.10;93.00;;;8.85;78.16;101309.22;5011053;28;19934;-77
2023/02/03 05:14:41;;;;;;;;;;;10.00;92.80;;;8.86;77.95;101303.72;5004334;28;19957;-77
2023/02/03 05:17:08;;;;;;;;;;;10.00;92.70;;;8.83;78.11;101305.91;5006666;28;19929;-77
2023/02/03 05:19:35;;;;;;;;;;;10.00;92.80;;;8.88;78.04;101311.50;5012519;28;19929;-77
2023/02/03 05:22:02;;;;;;;;;;;10.00;92.90;;;8.86;78.16;101303.72;5008009;28;20377;-77
2023/02/03 05:24:29;;;;;;;;;;;10.00;92.80;;;8.88;78.18;101300.88;4998276;28;19936;-77
2023/02/03 05:26:55;;;;;;;;;;;10.00;92.80;;;8.88;77.50;101303.53;4998874;28;19925;-77
2023/02/03 05:29:22;;;;;;;;;;;10.00;92.40;;;8.87;77.73;101316.00;5001855;28;19935;-77
2023/02/03 05:31:51;;;;;;;;;;;10.00;92.60;;;8.91;77.88;101313.81;4998496;28;19934;-77
2023/02/03 05:34:18;;;;;;;;;;;10.10;92.80;;;8.92;77.88;101318.94;4989949;28;20395;-77
2023/02/03 05:36:45;;;;;;;;;;;10.10;92.80;;;8.93;77.37;101319.78;5003914;28;19929;-78
2023/02/03 05:39:11;;;;;;;;;;;10.10;92.40;;;8.92;77.37;101310.16;5011860;28;19925;-78
2023/02/03 05:41:52;;;;;;;;;;;10.10;92.50;;;8.91;77.11;101305.84;4980820;28;19937;-78
2023/02/03 05:44:20;;;;;;;;;;;10.10;92.20;;;8.91;77.21;101316.47;5000619;28;19940;-79
2023/02/03 05:46:47;;;;;;;;;;;10.10;92.40;;;8.90;77.16;101320.97;4988552;28;19926;-77
2023/02/03 05:49:15;;;;;;;;;;;10.10;92.40;;;8.88;77.44;101314.16;4999351;28;20314;-77
2023/02/03 05:51:42;;;;;;;;;;;10.00;92.20;;;8.90;77.51;101314.84;5003668;28;19936;-77
2023/02/03 05:54:10;;;;;;;;;;;10.00;92.40;;;8.91;77.50;101311.97;4997402;28;19937;-78
2023/02/03 05:56:37;;;;;;;;;;;10.10;92.50;;;8.97;77.37;101310.44;4998005;28;20432;-78
2023/02/03 05:59:04;;;;;;;;;;;10.10;92.40;;;8.99;76.93;101303.13;5001213;28;20410;-77
2023/02/03 06:01:31;;;;;;;;;;;10.10;92.30;;;8.99;77.09;101325.22;5008448;28;19933;-78
2023/02/03 06:03:58;;;;;;;;;;;10.10;92.20;;;9.04;77.02;101330.00;5012188;28;20386;-77
2023/02/03 06:06:31;;;;;;;;;;;10.20;92.20;;;9.03;76.51;101307.91;5004628;28;19929;-78
2023/02/03 06:08:58;;;;;;;;;;;10.20;92.00;;;9.03;76.50;101312.41;4993295;28;19960;-78
2023/02/03 06:11:25;;;;;;;;;;;10.20;91.90;;;9.00;76.26;101307.41;4995527;28;19934;-78
2023/02/03 06:13:52;;;;;;;;;;;10.20;91.70;;;8.99;76.32;101311.91;5003608;28;19948;-78
2023/02/03 06:16:19;;;;;;;;;;;10.10;91.70;;;9.01;76.30;101311.72;5012898;28;19929;-78
2023/02/03 06:18:46;;;;;;;;;;;10.10;91.80;;;9.04;76.37;101316.69;5005080;28;20374;-78
2023/02/03 06:21:13;;;;;;;;;;;10.20;91.80;;;9.03;76.59;101315.06;5018251;28;20409;-78
2023/02/03 06:23:41;;;;;;;;;;;10.20;91.90;;;8.99;76.40;101327.88;4997668;28;19934;-78
2023/02/03 06:26:08;;;;;;;;;;;10.10;91.80;;;8.95;76.50;101312.47;5007089;28;19934;-77
2023/02/03 06:28:37;;;;;;;;;;;10.10;91.80;;;8.95;76.83;101307.97;5002977;28;20383;-77
2023/02/03 06:31:04;;;;;;;;;;;10.10;92.00;;;8.95;76.73;101320.44;4993453;28;20775;-77
2023/02/03 06:33:31;;;;;;;;;;;10.10;92.00;;;8.97;76.53;101315.75;5019859;28;19929;-78
2023/02/03 06:35:58;;;;;;;;;;;10.10;91.90;;;8.96;76.42;101328.22;5007270;28;19936;-77
2023/02/03 06:38:25;;;;;;;;;;;10.10;91.90;;;8.96;76.36;101330.06;5000997;28;19929;-77
2023/02/03 06:40:53;;;;;;;;;;;10.10;91.80;;;8.96;76.32;101330.06;5016398;28;19932;-77
2023/02/03 06:43:21;;;;;;;;;;;10.10;91.80;;;8.99;76.52;101308.44;5002740;28;19933;-77
2023/02/03 06:45:48;;;;;;;;;;;10.10;91.90;;;8.97;76.23;101311.25;5005878;28;19925;-77
2023/02/03 06:48:15;;;;;;;;;;;10.10;91.80;;;8.97;76.51;101337.03;5004298;28;19936;-78
2023/02/03 06:50:42;;;;;;;;;;;10.10;92.00;;;8.95;76.56;101323.09;5006522;28;19933;-77
2023/02/03 06:53:09;;;;;;;;;;;10.10;91.90;;;8.97;77.09;101331.72;5006955;28;20020;-78
2023/02/03 06:55:36;;;;;;;;;;;10.10;92.20;;;8.97;76.60;101319.25;4989855;28;19929;-78
2023/02/03 06:58:04;;;;;;;;;;;10.10;91.80;;;8.94;76.53;101327.59;5002290;28;19947;-77
2023/02/03 07:00:31;;;;;;;;;;;10.10;92.00;;;8.97;76.89;101315.75;4997863;28;19933;-78
2023/02/03 07:02:58;;;;;;;;;;;10.10;92.10;;;8.95;76.99;101337.22;5008403;28;20028;-78
2023/02/03 07:05:26;;;;;;;;;;;10.10;92.20;;;8.95;77.30;101331.91;5004106;28;20524;-77
2023/02/03 07:07:53;;;;;;;;;;;10.10;92.40;;;8.90;76.82;101326.28;5009602;28;19933;-77
2023/02/03 07:10:21;;;;;;;;;;;10.00;92.00;;;8.89;77.38;101321.16;5008961;28;19941;-77
2023/02/03 07:12:49;;;;;;;;;;;10.00;92.20;;;8.91;77.24;101333.25;5004416;28;20417;-77
2023/02/03 07:15:18;;;;;;;;;;;10.10;92.20;;;8.89;77.23;101323.81;5003775;28;19929;-77
2023/02/03 07:17:53;;;;;;;;;;;10.00;92.10;;;8.89;77.53;101335.28;5001934;28;19973;-77
2023/02/03 07:20:21;;;;;;;;;;;10.00;92.40;;;8.88;77.40;101336.31;5000285;28;19929;-78
2023/02/03 07:22:52;;;;;;;;;;;10.10;92.40;;;8.87;77.26;101333.78;5006518;28;20002;-77
2023/02/03 07:25:19;;;;;;;;;;;10.10;92.20;;;8.90;77.57;101330.78;5000974;28;20759;-78
2023/02/03 07:27:46;;;;;;;;;;;10.10;92.30;;;8.93;77.36;101319.78;5021411;28;19971;-78
2023/02/03 07:30:14;;;;;;;;;;;10.10;92.20;;;8.94;77.03;101326.78;5005985;28;20008;-77
2023/02/03 07:32:46;;;;;;;;;;;10.10;92.10;;;8.96;77.12;101316.75;5007805;28;19934;-78
2023/02/03 07:35:12;;;;;;;;;;;10.10;92.00;;;8.97;76.69;101321.91;5001256;28;19948;-77
2023/02/03 07:37:39;;;;;;;;;;;10.10;91.90;;;8.96;76.41;101324.75;4991761;28;20666;-78
2023/02/03 07:40:07;;;;;;;;;;;10.10;91.80;;;8.97;76.69;101331.72;4991385;28;19933;-77
2023/02/03 07:42:34;;;;;;;;;;;10.10;92.00;;;8.98;76.57;101322.75;5007316;28;19937;-77
2023/02/03 07:45:01;;;;;;;;;;;10.10;92.00;;;8.97;76.75;101324.56;4985886;28;19941;-78
2023/02/03 07:47:28;;;;;;;;;;;10.30;92.20;;;8.99;76.58;101335.03;5004180;28;19933;-78
2023/02/03 07:49:57;;;;;;;;;;;10.10;91.80;;;8.98;76.72;101334.22;5016940;28;20503;-77
2023/02/03 07:52:24;;;;;;;;;;;10.10;91.80;;;8.97;76.40;101345.84;4999988;28;19926;-77
2023/02/03 07:54:50;;;;;;;;;;;10.10;91.70;;;8.94;76.46;101343.56;5003627;28;19933;-78
2023/02/03 07:57:17;;;;;;;;;;;10.10;91.60;;;8.94;76.44;101348.88;4999046;28;19960;-78
2023/02/03 07:59:44;;;;;;;;;;;10.20;91.70;;;8.97;76.48;101342.34;4981053;28;19937;-78
2023/02/03 08:02:11;;;;;;;;;;;10.10;91.70;;;9.00;76.42;101336.69;5000857;28;19941;-77
2023/02/03 08:04:38;;;;;;;;;;;10.10;91.80;;;9.00;76.45;101340.16;4999428;28;19929;-77
2023/02/03 08:07:07;;;;;;;;;;;10.10;91.80;;;9.01;76.13;101349.81;4986373;28;19940;-77
2023/02/03 08:09:34;;;;;;;;;;;10.20;91.40;;;9.03;75.96;101357.63;5003360;28;19973;-78
2023/02/03 08:12:01;;;;;;;;;;;10.20;91.50;;;8.99;76.05;101351.81;5000043;28;19929;-78
2023/02/03 08:14:28;;;;;;;;;;;10.10;91.60;;;9.01;76.44;101343.66;4999338;28;19926;-78
2023/02/03 08:16:55;;;;;;;;;;;10.10;91.80;;;9.02;76.50;101347.97;4996967;28;19937;-77
2023/02/03 08:19:22;;;;;;;;;;;10.10;91.80;;;9.04;76.27;101348.63;4997240;28;20414;-78
2023/02/03 08:21:49;;;;;;;;;;;10.20;91.70;;;9.05;76.34;101360.91;5001352;28;19929;-78
2023/02/03 08:24:17;;;;;;;;;;;10.20;91.80;;;9.05;76.27;101342.28;5002261;28;19929;-78
2023/02/03 08:26:44;;;;;;;;;;;10.20;91.70;;;9.05;76.53;101349.47;4979451;28;19933;-77
2023/02/03 08:29:11;;;;;;;;;;;10.20;91.70;;;9.02;77.09;101350.63;4996824;28;20648;-78
2023/02/03 08:31:38;;;;;;;;;;;10.20;92.20;;;9.01;77.11;101359.63;5000588;28;20394;-78
2023/02/03 08:34:05;;;;;;;;;;;10.20;92.00;;;9.03;77.03;101363.78;5003363;28;19935;-78
2023/02/03 08:36:32;;;;;;;;;;;10.20;92.10;;;9.01;77.13;101367.59;4977057;28;20398;-77
2023/02/03 08:38:59;;;;;;;;;;;10.20;92.10;;;9.04;77.26;101361.94;4997659;28;19968;-78
2023/02/03 08:41:28;;;;;;;;;;;10.20;92.20;;;9.06;77.04;101351.09;4997957;28;20456;-77
2023/02/03 08:43:55;;;;;;;;;;;10.20;92.00;;;9.05;76.91;101352.94;4997716;28;19929;-77
2023/02/03 08:46:22;;;;;;;;;;;10.20;92.10;;;9.07;76.91;101355.41;4998770;28;19933;-78
2023/02/03 08:48:49;;;;;;;;;;;10.20;92.20;;;9.07;76.63;101360.72;4984814;28;19926;-78
2023/02/03 08:51:17;;;;;;;;;;;10.20;92.00;;;9.06;77.06;101359.91;5003934;28;19949;-78
2023/02/03 08:53:44;;;;;;;;;;;10.20;92.20;;;9.09;76.91;101364.06;5001934;28;20382;-78
2023/02/03 08:56:12;;;;;;;;;;;10.20;92.00;;;9.10;77.01;101371.03;4997593;28;19929;-77
2023/02/03 08:58:40;;;;;;;;;;;10.20;92.10;;;9.08;77.16;101376.53;5002852;28;19925;-77
2023/02/03 09:01:08;;;;;;;;;;;10.20;92.20;;;9.08;77.27;101376.53;5002642;28;19935;-78
2023/02/03 09:03:35;;;;;;;;;;;10.20;92.10;;;9.09;77.02;101359.56;4983843;28;19936;-78
2023/02/03 09:06:03;;;;;;;;;;;10.20;92.00;;;9.11;76.68;101359.38;5005111;28;20385;-78
2023/02/03 09:08:30;;;;;;;;;;;10.20;91.80;;;9.03;76.75;101363.78;5001295;28;19929;-78
2023/02/03 09:10:57;;;;;;;;;;;10.20;91.80;;;9.01;77.34;101371.09;5021345;28;19929;-77
2023/02/03 09:13:26;;;;;;;;;;;10.20;92.10;;;9.03;77.23;101370.94;5012183;28;20408;-77
2023/02/03 09:15:59;;;;;;;;;;;10.20;92.10;;;9.05;77.35;101366.25;4999557;28;19929;-78
2023/02/03 09:18:26;;;;;;;;;;;10.20;92.20;;;9.09;77.26;101367.53;5018380;28;20017;-78
2023/02/03 09:21:00;;;;;;;;;;;10.20;92.20;;;9.13;77.20;101378.66;4998365;28;19934;-78
2023/02/03 09:23:27;;;;;;;;;;;10.20;92.20;;;9.14;77.13;101377.66;5000216;28;19930;-79
2023/02/03 09:25:54;;;;;;;;;;;10.30;92.30;;;9.11;76.98;101386.00;5007092;28;19931;-78
2023/02/03 09:28:22;;;;;;;;;;;10.30;92.20;;;9.14;76.86;101375.81;4994713;28;19933;-78
2023/02/03 09:30:49;;;;;;;;;;;10.30;92.00;;;9.15;76.90;101374.81;5001314;28;20020;-78
2023/02/03 09:33:17;;;;;;;;;;;10.30;92.00;;;9.17;76.92;101378.09;5017052;28;20309;-78
2023/02/03 09:35:51;;;;;;;;;;;10.30;92.00;;;9.19;76.94;101393.91;4990070;28;20019;-78
2023/02/03 09:38:18;;;;;;;;;;;10.30;92.10;;;9.15;76.86;101393.44;5004102;28;20305;-78
2023/02/03 09:40:47;;;;;;;;;;;10.30;91.90;;;9.14;76.92;101386.47;4987328;28;20342;-77
2023/02/03 09:43:30;;;;;;;;;;;10.30;91.90;;;9.11;77.03;101386.81;4991333;28;19929;-78
2023/02/03 09:46:02;;;;;;;;;;;10.30;92.20;;;9.15;77.50;101395.28;4999295;28;19933;-77
2023/02/03 09:48:34;;;;;;;;;;;10.30;92.40;;;9.17;77.18;101388.75;4997657;28;19933;-77
2023/02/03 09:51:01;;;;;;;;;;;10.30;92.30;;;9.17;77.43;101386.09;5005704;28;19948;-77
2023/02/03 09:53:33;;;;;;;;;;;10.40;92.20;;;9.13;77.82;101384.81;5006195;28;19940;-78
2023/02/03 09:56:00;;;;;;;;;;;10.30;92.40;;;9.17;77.52;101375.44;5003118;28;19925;-77
2023/02/03 09:58:33;;;;;;;;;;;10.30;92.30;;;9.11;77.77;101367.34;5000436;28;19934;-77
2023/02/03 10:01:01;;;;;;;;;;;10.30;92.40;;;9.14;77.93;101375.00;5009264;28;19925;-77
2023/02/03 10:03:35;;;;;;;;;;;10.30;92.50;;;9.15;77.80;101372.16;5000146;28;19933;-77
2023/02/03 10:06:20;;;;;;;;;;;10.30;92.50;;;9.09;78.31;101377.38;5006425;28;19937;-78
2023/02/03 10:09:17;;;;;;;;;;;10.30;92.80;;;9.13;78.32;101373.34;5008749;28;20634;-77
2023/02/03 10:12:15;;;;;;;;;;;10.30;92.80;;;9.16;78.55;101380.94;4982352;28;20333;-77
2023/02/03 10:14:54;;;;;;;;;;;10.30;93.00;;;9.19;78.47;101393.91;4999572;28;19929;-77
2023/02/03 10:17:29;;;;;;;;;;;10.30;93.10;;;9.18;78.55;101376.28;4994825;28;20461;-77
2023/02/03 10:20:02;;;;;;;;;;;10.40;93.20;;;9.21;78.56;101367.94;5011399;28;20036;-77
2023/02/03 10:22:31;;;;;;;;;;;10.50;93.20;;;9.22;78.47;101382.88;5005818;28;19936;-78
2023/02/03 10:25:00;;;;;;;;;;;10.30;93.00;;;9.23;78.16;101396.03;5024157;28;19951;-77
2023/02/03 10:27:28;;;;;;;;;;;10.40;92.90;;;9.24;78.21;101389.69;5015818;28;19929;-77
2023/02/03 10:29:59;;;;;;;;;;;10.40;93.00;;;9.25;78.62;101398.50;5001105;28;19932;-77
2023/02/03 10:32:27;;;;;;;;;;;10.40;93.10;;;9.23;78.53;101406.69;5058738;22;19935;-78
2023/02/03 10:34:54;;;;;;;;;;;10.40;93.00;;;9.23;78.51;101396.03;5067850;28;19932;-76
2023/02/03 10:37:27;;;;;;;;;;;10.40;93.00;;;9.24;78.67;101403.00;5064963;28;19928;-76
2023/02/03 10:39:55;;;;;;;;;;;10.40;93.20;;;9.26;78.36;101400.16;5070336;28;19924;-76
2023/02/03 10:42:23;;;;;;;;;;;10.40;93.00;;;9.26;78.47;101411.63;5068567;28;19972;-76
2023/02/03 10:44:54;;;;;;;;;;;10.40;92.90;;;9.29;78.56;101410.47;5069062;28;19931;-76
2023/02/03 10:47:25;;;;;;;;;;;10.40;93.00;;;9.36;78.55;101402.56;5068289;28;19932;-76
2023/02/03 10:49:53;;;;;;;;;;;10.50;93.20;;;9.34;78.21;101401.94;5068727;28;19951;-76
2023/02/03 10:52:30;;;;;;;;;;;10.50;92.90;;;9.33;78.35;101379.00;5068164;28;20007;-76
2023/02/03 10:54:59;;;;;;;;;;;10.50;93.00;;;9.35;78.36;101392.94;5069717;28;19928;-76
2023/02/03 10:57:29;;;;;;;;;;;10.50;93.00;;;9.35;78.37;101382.28;5069044;28;19960;-76
2023/02/03 11:00:06;;;;;;;;;;;10.50;93.00;;;9.35;78.62;101388.44;5070457;28;19928;-76
2023/02/03 11:02:34;;;;;;;;;;;10.60;93.00;;;9.37;78.41;101391.75;5069252;28;20031;-76
2023/02/03 11:05:18;;;;;;;;;;;10.60;92.90;;;9.38;78.40;101403.25;5069211;28;19930;-76
2023/02/03 11:07:47;;;;;;;;;;;10.60;92.60;;;9.37;78.32;101382.91;5065873;28;19931;-76
2023/02/03 11:10:28;;;;;;;;;;;10.60;92.80;;;9.38;78.21;101392.59;5064110;28;19928;-76
2023/02/03 11:13:12;;;;;;;;;;;10.60;92.60;;;9.39;78.18;101389.75;5068966;28;19943;-76
2023/02/03 11:15:44;;;;;;;;;;;10.70;92.90;;;9.40;78.12;101396.72;5067610;28;19928;-76
2023/02/03 11:18:27;;;;;;;;;;;10.60;92.80;;;9.38;78.25;101397.91;5069369;28;19932;-75
2023/02/03 11:20:54;;;;;;;;;;;10.50;92.90;;;9.38;78.50;101398.72;5069862;28;19967;-76
2023/02/03 11:23:22;;;;;;;;;;;10.60;93.00;;;9.39;78.46;101399.56;5067730;28;20663;-76
2023/02/03 11:25:49;;;;;;;;;;;10.60;93.00;;;9.41;78.55;101400.19;5069528;28;19928;-76
2023/02/03 11:28:16;;;;;;;;;;;10.60;93.00;;;9.42;78.46;101413.34;5069416;28;19928;-76